KKLS/KLS METAR and TAF weather

Enter ICAO airport designator
Station Type Date Time Source
KKLS METAR 2022/12/04 05:56 UTC NOAA

KKLS 040556Z AUTO 00000KT 10SM CLR M02/M03 A3004 RMK AO2 SLP178 T10221028 10056 21022 58005 FZRANO


Station Type Date Time Source
KKLS Decoded METAR 2022/12/04 05:56 UTC NOAA

Kelso, Kelso-Longview Airport, WA, United States (KKLS) 46-07N 122-54W
Dec 04, 2022 - 12:56 AM EST / 2022.12.04 0556 UTC
Wind: Calm:0
Visibility: 10 mile(s):0
Sky conditions: clear
Temperature: 28.0 F (-2.2 C)
Dew Point: 27.0 F (-2.8 C)
Relative Humidity: 95%
Pressure (altimeter): 30.04 in. Hg (1017 hPa)
Pressure tendency: 0.01 inches (0.5 hPa) lower than three hours ago
ob: KKLS 040556Z AUTO 00000KT 10SM CLR M02/M03 A3004 RMK AO2 SLP178 T10221028 10056 21022 58005 FZRANO
cycle: 6

Station Type Date Time Source
KKLS TAF UTC NOAA

Error!

Example: see airport list